Stations météo

réclame
Mon MeteoGroup
Arroyo Del Ojanco, Espagne (8352): Température de l'air & dewpoint: 15.09.2018 00:00:00 - 21.09.2018 00:00:00 (CEST)Arroyo Del Ojanco, Espagne (8352): Vitesse du vent & gusts: 15.09.2018 00:00:00 - 21.09.2018 00:00:00 (CEST)Arroyo Del Ojanco, Espagne (8352): Direction du vent: 15.09.2018 00:00:00 - 21.09.2018 00:00:00 (CEST)Arroyo Del Ojanco, Espagne (8352): Quantités de précipitations: 15.09.2018 00:00:00 - 21.09.2018 00:00:00 (CEST)
Date & Time tt [°C] td [°C] ff [km/h] ff [knt] fx [km/h] fx [knt] dd rr [mm]
21.09.2018 00:00:00 - - - - - - - -
20.09.2018 23:00:00 23,2 14,2 0 0 22 12 N 0,0
20.09.2018 22:00:00 23,9 13,5 0 0 7 4 N 0,0
20.09.2018 21:00:00 26,4 13,2 3 1 21 11 NE 0,0
20.09.2018 20:00:00 27,5 13,1 14 8 22 12 SE -
20.09.2018 19:00:00 30,6 13,4 4 2 14 7 NNE 0,0
20.09.2018 18:00:00 31,4 14,1 7 4 18 10 ENE 0,0
20.09.2018 17:00:00 32,1 14,7 6 3 18 10 W 0,0
20.09.2018 16:00:00 31,7 15,2 7 4 17 9 W 0,0
20.09.2018 15:00:00 31,0 15,8 2 1 16 9 W 0,0
20.09.2018 14:00:00 29,8 15,9 5 3 14 7 W -
20.09.2018 13:00:00 27,6 16,2 6 3 13 7 W 0,0
20.09.2018 12:00:00 25,4 17,3 6 3 12 7 W 0,0
20.09.2018 11:00:00 24,0 16,8 0 0 7 4 N 0,0
20.09.2018 10:00:00 21,3 16,9 3 1 5 3 N 0,0
20.09.2018 09:00:00 18,6 17,3 0 0 7 4 N 0,0
20.09.2018 08:00:00 16,3 15,7 0 0 0 0 N -
20.09.2018 07:00:00 16,7 15,7 0 0 0 0 N 0,0
20.09.2018 06:00:00 17,1 15,6 0 0 0 0 N 0,0
20.09.2018 05:00:00 17,8 15,6 0 0 3 2 N 0,0
20.09.2018 04:00:00 18,2 16,2 6 3 9 5 NE 0,0
20.09.2018 03:00:00 18,7 15,9 0 0 0 0 N 0,0
20.09.2018 02:00:00 19,3 16,2 0 0 0 0 N -
20.09.2018 01:00:00 19,7 16,0 0 0 0 0 N 0,0
20.09.2018 00:00:00 20,7 15,9 0 0 0 0 N 0,0
19.09.2018 23:00:00 21,2 16,0 0 0 8 4 N 0,0
19.09.2018 22:00:00 22,6 14,7 3 1 10 6 NE 0,0
19.09.2018 21:00:00 25,1 14,3 3 2 15 8 ENE 0,0
19.09.2018 20:00:00 25,3 14,4 0 0 18 10 N -
19.09.2018 19:00:00 27,0 14,7 10 5 20 11 ESE 0,0
19.09.2018 18:00:00 27,3 15,0 14 8 27 15 SE 0,0
19.09.2018 17:00:00 28,2 16,5 7 4 10 6 SE 0,0
19.09.2018 16:00:00 28,7 16,6 1 1 17 9 NE 0,0
19.09.2018 15:00:00 30,2 15,5 6 3 14 7 N 0,0
19.09.2018 14:00:00 29,3 15,8 6 3 11 6 N -
19.09.2018 13:00:00 28,1 17,3 4 2 10 5 W 0,0
19.09.2018 12:00:00 26,7 17,7 0 0 7 4 S 0,0
19.09.2018 11:00:00 23,8 17,8 1 0 8 4 SSW 0,0
19.09.2018 10:00:00 21,9 17,1 3 2 8 4 ENE 0,0
19.09.2018 09:00:00 19,3 17,3 4 2 11 6 NE 0,0
19.09.2018 08:00:00 17,2 16,9 9 5 11 6 NNE -
19.09.2018 07:00:00 17,5 16,9 0 0 3 2 NNE 0,0
19.09.2018 06:00:00 17,7 16,6 0 0 9 5 N 0,0
19.09.2018 05:00:00 18,0 16,5 0 0 6 4 N 0,0
19.09.2018 04:00:00 17,9 16,4 2 1 8 4 NE 0,0
19.09.2018 03:00:00 18,7 16,7 5 3 8 5 S 0,0
19.09.2018 02:00:00 18,5 16,5 1 1 14 7 S -
19.09.2018 01:00:00 19,3 16,9 8 4 16 9 NE 0,0
19.09.2018 00:00:00 19,4 17,5 5 3 11 6 NNE 0,0
18.09.2018 23:00:00 19,9 17,9 1 0 5 3 N 0,0
18.09.2018 22:00:00 20,0 18,1 4 2 6 3 NE 0,0
18.09.2018 21:00:00 19,8 17,4 0 0 0 0 N 0,0
18.09.2018 20:00:00 20,7 17,5 0 0 6 4 N -
18.09.2018 19:00:00 22,7 20,8 0 0 0 0 N 0,0
18.09.2018 18:00:00 22,5 21,0 0 0 12 7 N 0,0
18.09.2018 17:00:00 21,1 19,0 11 6 29 16 NE 1,9
18.09.2018 16:00:00 19,2 17,7 11 6 50 27 SSE 18,3
18.09.2018 15:00:00 26,3 14,1 17 9 32 17 NE 0,0
18.09.2018 14:00:00 28,5 16,1 11 6 20 11 SW -
18.09.2018 13:00:00 27,1 16,1 5 3 13 7 W 0,0
18.09.2018 12:00:00 25,7 16,5 4 2 9 5 N 0,0
18.09.2018 11:00:00 23,1 16,9 5 3 9 5 N 0,0
18.09.2018 10:00:00 21,0 18,0 1 0 5 3 NNE 0,0
18.09.2018 09:00:00 18,3 18,1 0 0 9 5 N 0,0
18.09.2018 08:00:00 16,6 16,4 0 0 0 0 N -
18.09.2018 07:00:00 16,7 16,5 0 0 5 3 N 0,0
18.09.2018 06:00:00 16,9 16,7 3 2 6 3 NE 0,0
18.09.2018 05:00:00 17,3 17,1 1 0 6 4 NNW 0,0
18.09.2018 04:00:00 17,5 17,3 0 0 11 6 N 0,0
18.09.2018 03:00:00 17,8 17,6 3 1 8 5 NE 0,0
18.09.2018 02:00:00 18,1 17,8 0 0 5 3 N -
18.09.2018 01:00:00 18,7 17,7 4 2 12 7 ENE 0,0
18.09.2018 00:00:00 18,9 18,1 1 1 10 5 N 0,0
17.09.2018 23:00:00 19,2 17,9 0 0 7 4 N 0,0
17.09.2018 22:00:00 19,5 18,0 5 3 10 5 NNE 0,0
17.09.2018 21:00:00 19,6 18,8 0 0 7 4 WNW 0,0
17.09.2018 20:00:00 - - - - - - - -
17.09.2018 19:00:00 20,2 18,1 7 4 11 6 NE 0,0
17.09.2018 18:00:00 21,6 18,4 3 2 25 14 NNE 0,1
17.09.2018 17:00:00 20,4 16,6 12 6 29 16 E 0,5
17.09.2018 16:00:00 21,0 17,0 19 10 37 20 SE 0,0
17.09.2018 15:00:00 24,1 15,1 22 12 40 22 SSE 0,0
17.09.2018 14:00:00 29,7 17,2 5 3 14 8 W -
17.09.2018 13:00:00 27,9 16,8 9 5 17 9 W 0,0
17.09.2018 12:00:00 26,5 16,4 3 1 10 6 N 0,0
17.09.2018 11:00:00 24,4 17,6 4 2 9 5 N 0,0
17.09.2018 10:00:00 23,4 17,8 1 1 6 3 ENE 0,0
17.09.2018 09:00:00 20,5 17,5 0 0 8 4 N 0,0
17.09.2018 08:00:00 18,1 16,6 0 0 6 3 SSE -
17.09.2018 07:00:00 19,0 17,0 1 1 6 3 N 0,0
17.09.2018 06:00:00 19,1 16,9 0 0 6 3 N 0,0
17.09.2018 05:00:00 20,0 16,8 0 0 7 4 N 0,0
17.09.2018 04:00:00 21,1 16,1 1 1 11 6 N 0,0
17.09.2018 03:00:00 22,8 15,6 3 2 16 8 SW 0,0
17.09.2018 02:00:00 22,8 16,4 9 5 25 13 ENE -
17.09.2018 01:00:00 24,3 16,6 7 4 14 7 E 0,0
17.09.2018 00:00:00 24,3 16,0 1 0 15 8 ESE 0,0
16.09.2018 23:00:00 24,2 15,7 8 4 12 7 NE 0,0
16.09.2018 22:00:00 25,6 15,0 0 0 12 6 ESE 0,0
16.09.2018 21:00:00 26,7 14,1 3 2 21 11 NNE 0,0
16.09.2018 20:00:00 27,4 14,1 10 5 16 9 SSE -
16.09.2018 19:00:00 30,1 14,6 9 5 17 9 S 0,0
16.09.2018 18:00:00 31,0 15,4 1 1 23 13 SSE 0,0
16.09.2018 17:00:00 31,1 15,5 9 5 22 12 SSW 0,0
16.09.2018 16:00:00 30,8 15,2 7 4 18 10 W 0,0
16.09.2018 15:00:00 29,1 15,2 6 4 13 7 W 0,0
16.09.2018 14:00:00 28,5 16,1 5 3 17 9 WNW -
16.09.2018 13:00:00 26,9 15,6 3 2 13 7 NNW 0,0
16.09.2018 12:00:00 25,3 15,9 5 3 14 8 N 0,0
16.09.2018 11:00:00 24,0 16,8 5 3 11 6 N 0,0
16.09.2018 10:00:00 20,9 16,9 4 2 11 6 N 0,0
16.09.2018 09:00:00 18,6 16,9 1 1 8 4 NE 0,0
16.09.2018 08:00:00 16,7 16,5 0 0 0 0 N -
16.09.2018 07:00:00 16,5 16,3 0 0 0 0 N 0,0
16.09.2018 06:00:00 16,9 16,6 0 0 0 0 N 0,0
16.09.2018 05:00:00 17,4 16,4 0 0 7 4 NNE 0,0
16.09.2018 04:00:00 18,0 16,7 3 1 8 4 E 0,0
16.09.2018 03:00:00 17,8 16,5 1 1 11 6 NNE 0,0
16.09.2018 02:00:00 18,6 16,2 4 2 9 5 S -
16.09.2018 01:00:00 20,2 16,4 4 2 11 6 S 0,0
16.09.2018 00:00:00 20,5 15,9 6 4 10 5 SE 0,0
15.09.2018 23:00:00 21,2 15,7 0 0 6 4 N 0,0
15.09.2018 22:00:00 21,5 15,3 0 0 9 5 N 0,0
15.09.2018 21:00:00 22,3 15,4 5 3 11 6 NNE 0,0
15.09.2018 20:00:00 23,0 15,3 5 3 16 9 ENE -
15.09.2018 19:00:00 24,4 15,9 5 3 24 13 ESE 0,0
15.09.2018 18:00:00 24,9 16,1 11 6 23 12 E 0,0
15.09.2018 17:00:00 25,4 16,5 6 4 22 12 E 0,0
15.09.2018 16:00:00 24,5 16,5 8 5 25 14 E 0,0
15.09.2018 15:00:00 24,6 16,6 9 5 22 12 E 0,0
15.09.2018 14:00:00 23,6 16,9 9 5 23 12 NNE -
15.09.2018 13:00:00 24,0 16,3 16 8 24 13 NE 0,0
15.09.2018 12:00:00 24,0 16,8 13 7 21 11 NE 0,0
15.09.2018 11:00:00 23,4 16,7 14 8 23 12 NE 0,0
15.09.2018 10:00:00 22,2 17,1 8 4 13 7 ENE 0,0
15.09.2018 09:00:00 20,8 16,6 6 3 12 6 NNE 0,0
15.09.2018 08:00:00 19,0 16,2 1 1 13 7 NE -
15.09.2018 07:00:00 17,7 16,0 4 2 8 4 S 0,0
15.09.2018 06:00:00 18,0 16,2 1 1 7 4 NNE 0,0
15.09.2018 05:00:00 17,9 16,4 0 0 7 4 N 0,0
15.09.2018 04:00:00 18,3 17,0 0 0 6 4 NE 0,0
15.09.2018 03:00:00 18,8 16,9 0 0 7 4 N 0,0
15.09.2018 02:00:00 20,0 17,2 4 2 7 4 SSE -
15.09.2018 01:00:00 19,9 17,1 5 3 10 5 S 0,0
15.09.2018 00:00:00 21,8 17,2 4 2 11 6 S 0,0

tt = Température de l'air
td = dewpoint
ff = Vitesse du vent
fx = gusts
dd = Direction du vent
rr = Quantités de précipitations

stations d'obs. à proximité